sensor_id;sensor_type;location;lat;lon;timestamp;pressure;altitude;pressure_sealevel;temperature;humidity
4273;BME280;63887;53.656;9.810;2023-01-29T00:01:21;102758.31;;;2.08;99.83
4273;BME280;63887;53.656;9.810;2023-01-29T00:03:50;102756.66;;;2.14;99.73
4273;BME280;63887;53.656;9.810;2023-01-29T00:06:16;102756.63;;;2.11;99.52
4273;BME280;63887;53.656;9.810;2023-01-29T00:08:43;102750.56;;;2.08;100.00
4273;BME280;63887;53.656;9.810;2023-01-29T00:11:10;102750.50;;;2.07;100.00
4273;BME280;63887;53.656;9.810;2023-01-29T00:13:36;102745.41;;;2.10;100.00
4273;BME280;63887;53.656;9.810;2023-01-29T00:16:02;102751.47;;;2.14;100.00
4273;BME280;63887;53.656;9.810;2023-01-29T00:18:29;102735.94;;;2.14;100.00
4273;BME280;63887;53.656;9.810;2023-01-29T00:20:57;102734.19;;;2.09;100.00
4273;BME280;63887;53.656;9.810;2023-01-29T00:23:23;102730.75;;;2.11;100.00
4273;BME280;63887;53.656;9.810;2023-01-29T00:25:49;102722.13;;;2.12;100.00
4273;BME280;63887;53.656;9.810;2023-01-29T00:28:16;102726.47;;;2.14;100.00
4273;BME280;63887;53.656;9.810;2023-01-29T00:30:42;102716.97;;;2.15;100.00
4273;BME280;63887;53.656;9.810;2023-01-29T00:33:08;102709.22;;;2.15;100.00
4273;BME280;63887;53.656;9.810;2023-01-29T00:35:37;102705.78;;;2.19;100.00
4273;BME280;63887;53.656;9.810;2023-01-29T00:38:05;102703.22;;;2.20;100.00
4273;BME280;63887;53.656;9.810;2023-01-29T00:40:32;102715.31;;;2.21;100.00
4273;BME280;63887;53.656;9.810;2023-01-29T00:43:19;102710.19;;;2.24;100.00
4273;BME280;63887;53.656;9.810;2023-01-29T00:46:03;102723.06;;;2.20;100.00
4273;BME280;63887;53.656;9.810;2023-01-29T00:48:31;102716.16;;;2.22;100.00
4273;BME280;63887;53.656;9.810;2023-01-29T00:50:58;102725.78;;;2.32;100.00
4273;BME280;63887;53.656;9.810;2023-01-29T00:53:25;102722.28;;;2.27;100.00
4273;BME280;63887;53.656;9.810;2023-01-29T00:55:52;102728.34;;;2.29;100.00
4273;BME280;63887;53.656;9.810;2023-01-29T00:58:18;102726.69;;;2.35;100.00
4273;BME280;63887;53.656;9.810;2023-01-29T01:00:46;102728.38;;;2.30;100.00
4273;BME280;63887;53.656;9.810;2023-01-29T01:03:13;102732.69;;;2.30;100.00
4273;BME280;63887;53.656;9.810;2023-01-29T01:05:38;102735.28;;;2.33;100.00
4273;BME280;63887;53.656;9.810;2023-01-29T01:08:06;102727.50;;;2.30;99.94
4273;BME280;63887;53.656;9.810;2023-01-29T01:10:58;102728.34;;;2.27;100.00
4273;BME280;63887;53.656;9.810;2023-01-29T01:13:24;102724.06;;;2.31;100.00
4273;BME280;63887;53.656;9.810;2023-01-29T01:15:50;102721.56;;;2.38;100.00
4273;BME280;63887;53.656;9.810;2023-01-29T01:18:17;102727.56;;;2.36;100.00
4273;BME280;63887;53.656;9.810;2023-01-29T01:20:46;102720.59;;;2.32;100.00
4273;BME280;63887;53.656;9.810;2023-01-29T01:23:16;102726.63;;;2.31;100.00
4273;BME280;63887;53.656;9.810;2023-01-29T01:25:42;102729.22;;;2.29;100.00
4273;BME280;63887;53.656;9.810;2023-01-29T01:28:10;102735.25;;;2.28;100.00
4273;BME280;63887;53.656;9.810;2023-01-29T01:30:36;102737.91;;;2.34;99.88
4273;BME280;63887;53.656;9.810;2023-01-29T01:33:03;102724.97;;;2.37;100.00
4273;BME280;63887;53.656;9.810;2023-01-29T01:35:29;102722.38;;;2.37;100.00
4273;BME280;63887;53.656;9.810;2023-01-29T01:37:55;102729.28;;;2.37;99.88
4273;BME280;63887;53.656;9.810;2023-01-29T01:40:23;102723.22;;;2.35;100.00
4273;BME280;63887;53.656;9.810;2023-01-29T01:42:50;102727.53;;;2.34;99.93
4273;BME280;63887;53.656;9.810;2023-01-29T01:45:19;102725.88;;;2.39;100.00
4273;BME280;63887;53.656;9.810;2023-01-29T01:47:46;102725.81;;;2.36;100.00
4273;BME280;63887;53.656;9.810;2023-01-29T01:50:14;102722.38;;;2.37;99.80
4273;BME280;63887;53.656;9.810;2023-01-29T01:52:42;102724.06;;;2.34;99.74
4273;BME280;63887;53.656;9.810;2023-01-29T01:55:11;102718.03;;;2.32;100.00
4273;BME280;63887;53.656;9.810;2023-01-29T01:57:38;102711.09;;;2.28;99.93
4273;BME280;63887;53.656;9.810;2023-01-29T02:00:06;102717.19;;;2.36;100.00
4273;BME280;63887;53.656;9.810;2023-01-29T02:02:40;102718.06;;;2.38;99.95
4273;BME280;63887;53.656;9.810;2023-01-29T02:05:26;102714.59;;;2.34;100.00
4273;BME280;63887;53.656;9.810;2023-01-29T02:08:11;102711.16;;;2.37;100.00
4273;BME280;63887;53.656;9.810;2023-01-29T02:10:55;102714.59;;;2.36;100.00
4273;BME280;63887;53.656;9.810;2023-01-29T02:13:23;102709.44;;;2.37;100.00
4273;BME280;63887;53.656;9.810;2023-01-29T02:15:49;102706.84;;;2.36;100.00
4273;BME280;63887;53.656;9.810;2023-01-29T02:18:18;102704.31;;;2.41;99.91
4273;BME280;63887;53.656;9.810;2023-01-29T02:20:47;102700.78;;;2.35;100.00
4273;BME280;63887;53.656;9.810;2023-01-29T02:23:19;102696.50;;;2.37;100.00
4273;BME280;63887;53.656;9.810;2023-01-29T02:26:08;102693.03;;;2.37;99.88
4273;BME280;63887;53.656;9.810;2023-01-29T02:28:40;102694.75;;;2.38;100.00
4273;BME280;63887;53.656;9.810;2023-01-29T02:31:14;102687.91;;;2.38;100.00
4273;BME280;63887;53.656;9.810;2023-01-29T02:33:45;102687.97;;;2.48;100.00
4273;BME280;63887;53.656;9.810;2023-01-29T02:36:16;102691.38;;;2.44;100.00
4273;BME280;63887;53.656;9.810;2023-01-29T02:38:45;102685.34;;;2.43;100.00
4273;BME280;63887;53.656;9.810;2023-01-29T02:41:14;102677.56;;;2.43;100.00
4273;BME280;63887;53.656;9.810;2023-01-29T02:43:44;102687.09;;;2.46;100.00
4273;BME280;63887;53.656;9.810;2023-01-29T02:46:14;102683.78;;;2.62;100.00
4273;BME280;63887;53.656;9.810;2023-01-29T02:48:42;102678.56;;;2.56;100.00
4273;BME280;63887;53.656;9.810;2023-01-29T02:51:13;102669.91;;;2.54;99.74
4273;BME280;63887;53.656;9.810;2023-01-29T02:53:44;102667.34;;;2.55;99.50
4273;BME280;63887;53.656;9.810;2023-01-29T02:56:14;102663.88;;;2.53;99.87
4273;BME280;63887;53.656;9.810;2023-01-29T02:58:44;102652.59;;;2.53;99.89
4273;BME280;63887;53.656;9.810;2023-01-29T03:01:12;102646.59;;;2.55;99.98
4273;BME280;63887;53.656;9.810;2023-01-29T03:03:41;102649.22;;;2.60;99.88
4273;BME280;63887;53.656;9.810;2023-01-29T03:06:10;102643.16;;;2.56;99.71
4273;BME280;63887;53.656;9.810;2023-01-29T03:08:42;102633.66;;;2.57;99.95
4273;BME280;63887;53.656;9.810;2023-01-29T03:11:14;102627.63;;;2.56;99.73
4273;BME280;63887;53.656;9.810;2023-01-29T03:13:44;102627.63;;;2.56;99.84
4273;BME280;63887;53.656;9.810;2023-01-29T03:16:14;102627.63;;;2.56;99.82
4273;BME280;63887;53.656;9.810;2023-01-29T03:18:45;102625.88;;;2.54;100.00
4273;BME280;63887;53.656;9.810;2023-01-29T03:21:16;102616.34;;;2.53;100.00
4273;BME280;63887;53.656;9.810;2023-01-29T03:24:01;102616.38;;;2.54;100.00
4273;BME280;63887;53.656;9.810;2023-01-29T03:26:47;102616.38;;;2.54;100.00
4273;BME280;63887;53.656;9.810;2023-01-29T03:29:36;102614.66;;;2.55;100.00
4273;BME280;63887;53.656;9.810;2023-01-29T03:32:26;102619.00;;;2.60;100.00
4273;BME280;63887;53.656;9.810;2023-01-29T03:34:56;102612.94;;;2.57;99.95
4273;BME280;63887;53.656;9.810;2023-01-29T03:37:26;102612.97;;;2.60;99.85
4273;BME280;63887;53.656;9.810;2023-01-29T03:39:55;102613.88;;;2.66;99.46
4273;BME280;63887;53.656;9.810;2023-01-29T03:42:23;102616.44;;;2.63;99.53
4273;BME280;63887;53.656;9.810;2023-01-29T03:44:56;102617.28;;;2.62;99.36
4273;BME280;63887;53.656;9.810;2023-01-29T03:47:31;102619.88;;;2.62;99.40
4273;BME280;63887;53.656;9.810;2023-01-29T03:50:02;102621.63;;;2.63;99.42
4273;BME280;63887;53.656;9.810;2023-01-29T03:52:34;102617.31;;;2.65;99.16
4273;BME280;63887;53.656;9.810;2023-01-29T03:55:06;102617.38;;;2.73;99.42
4273;BME280;63887;53.656;9.810;2023-01-29T03:57:37;102620.78;;;2.66;99.52
4273;BME280;63887;53.656;9.810;2023-01-29T04:00:11;102608.63;;;2.57;99.74
4273;BME280;63887;53.656;9.810;2023-01-29T04:02:55;102614.66;;;2.56;100.00
4273;BME280;63887;53.656;9.810;2023-01-29T04:05:26;102611.16;;;2.53;100.00
4273;BME280;63887;53.656;9.810;2023-01-29T04:08:05;102601.69;;;2.53;100.00
4273;BME280;63887;53.656;9.810;2023-01-29T04:10:34;102594.72;;;2.46;100.00
4273;BME280;63887;53.656;9.810;2023-01-29T04:13:03;102596.47;;;2.50;100.00
4273;BME280;63887;53.656;9.810;2023-01-29T04:15:33;102599.91;;;2.49;100.00
4273;BME280;63887;53.656;9.810;2023-01-29T04:18:01;102591.38;;;2.62;100.00
4273;BME280;63887;53.656;9.810;2023-01-29T04:20:38;102600.88;;;2.59;100.00
4273;BME280;63887;53.656;9.810;2023-01-29T04:23:06;102607.75;;;2.54;100.00
4273;BME280;63887;53.656;9.810;2023-01-29T04:25:34;102595.66;;;2.54;100.00
4273;BME280;63887;53.656;9.810;2023-01-29T04:28:10;102593.94;;;2.55;100.00
4273;BME280;63887;53.656;9.810;2023-01-29T04:30:42;102604.34;;;2.61;100.00
4273;BME280;63887;53.656;9.810;2023-01-29T04:33:17;102604.31;;;2.56;99.65
4273;BME280;63887;53.656;9.810;2023-01-29T04:35:53;102599.94;;;2.52;100.00
4273;BME280;63887;53.656;9.810;2023-01-29T04:38:26;102609.44;;;2.52;99.97
4273;BME280;63887;53.656;9.810;2023-01-29T04:40:59;102609.41;;;2.47;100.00
4273;BME280;63887;53.656;9.810;2023-01-29T04:43:34;102610.28;;;2.49;100.00
4273;BME280;63887;53.656;9.810;2023-01-29T04:46:08;102616.31;;;2.50;100.00
4273;BME280;63887;53.656;9.810;2023-01-29T04:48:39;102617.16;;;2.44;99.96
4273;BME280;63887;53.656;9.810;2023-01-29T04:51:09;102615.44;;;2.45;99.85
4273;BME280;63887;53.656;9.810;2023-01-29T04:53:40;102620.66;;;2.51;99.89
4273;BME280;63887;53.656;9.810;2023-01-29T04:56:10;102609.41;;;2.47;99.85
4273;BME280;63887;53.656;9.810;2023-01-29T04:58:39;102611.09;;;2.42;99.88
4273;BME280;63887;53.656;9.810;2023-01-29T05:01:10;102603.31;;;2.39;100.00
4273;BME280;63887;53.656;9.810;2023-01-29T05:03:38;102593.75;;;2.36;100.00
4273;BME280;63887;53.656;9.810;2023-01-29T05:06:06;102586.91;;;2.42;99.34
4273;BME280;63887;53.656;9.810;2023-01-29T05:08:33;102595.56;;;2.42;99.24
4273;BME280;63887;53.656;9.810;2023-01-29T05:11:01;102589.50;;;2.38;99.33
4273;BME280;63887;53.656;9.810;2023-01-29T05:13:28;102572.25;;;2.42;99.22
4273;BME280;63887;53.656;9.810;2023-01-29T05:15:56;102563.53;;;2.34;99.54
4273;BME280;63887;53.656;9.810;2023-01-29T05:18:27;102573.88;;;2.34;99.15
4273;BME280;63887;53.656;9.810;2023-01-29T05:20:54;102574.81;;;2.39;99.49
4273;BME280;63887;53.656;9.810;2023-01-29T05:23:22;102583.41;;;2.38;99.72
4273;BME280;63887;53.656;9.810;2023-01-29T05:25:49;102578.22;;;2.36;99.73
4273;BME280;63887;53.656;9.810;2023-01-29T05:28:15;102573.88;;;2.34;99.61
4273;BME280;63887;53.656;9.810;2023-01-29T05:30:41;102577.38;;;2.37;99.49
4273;BME280;63887;53.656;9.810;2023-01-29T05:33:10;102571.31;;;2.37;99.29
4273;BME280;63887;53.656;9.810;2023-01-29T05:35:38;102561.00;;;2.38;99.63
4273;BME280;63887;53.656;9.810;2023-01-29T05:38:04;102567.84;;;2.35;99.33
4273;BME280;63887;53.656;9.810;2023-01-29T05:40:31;102561.81;;;2.33;99.68
4273;BME280;63887;53.656;9.810;2023-01-29T05:42:57;102560.09;;;2.36;99.52
4273;BME280;63887;53.656;9.810;2023-01-29T05:45:24;102573.00;;;2.32;99.37
4273;BME280;63887;53.656;9.810;2023-01-29T05:47:50;102582.50;;;2.33;99.27
4273;BME280;63887;53.656;9.810;2023-01-29T05:50:20;102589.44;;;2.37;99.44
4273;BME280;63887;53.656;9.810;2023-01-29T05:52:48;102592.00;;;2.31;99.48
4273;BME280;63887;53.656;9.810;2023-01-29T05:55:14;102592.00;;;2.29;99.49
4273;BME280;63887;53.656;9.810;2023-01-29T05:57:41;102579.91;;;2.28;99.38
4273;BME280;63887;53.656;9.810;2023-01-29T06:00:08;102568.69;;;2.32;99.46
4273;BME280;63887;53.656;9.810;2023-01-29T06:02:37;102554.88;;;2.30;99.21
4273;BME280;63887;53.656;9.810;2023-01-29T06:05:03;102560.91;;;2.28;99.75
4273;BME280;63887;53.656;9.810;2023-01-29T06:07:30;102568.69;;;2.32;99.57
4273;BME280;63887;53.656;9.810;2023-01-29T06:09:58;102560.06;;;2.32;99.49
4273;BME280;63887;53.656;9.810;2023-01-29T06:12:25;102547.13;;;2.35;99.14
4273;BME280;63887;53.656;9.810;2023-01-29T06:14:51;102544.53;;;2.33;99.42
4273;BME280;63887;53.656;9.810;2023-01-29T06:17:17;102528.16;;;2.37;99.01
4273;BME280;63887;53.656;9.810;2023-01-29T06:19:44;102545.41;;;2.35;99.21
4273;BME280;63887;53.656;9.810;2023-01-29T06:22:10;102540.19;;;2.29;99.03
4273;BME280;63887;53.656;9.810;2023-01-29T06:24:36;102530.72;;;2.30;99.01
4273;BME280;63887;53.656;9.810;2023-01-29T06:27:04;102519.50;;;2.29;99.15
4273;BME280;63887;53.656;9.810;2023-01-29T06:29:30;102508.28;;;2.32;99.03
4273;BME280;63887;53.656;9.810;2023-01-29T06:31:57;102510.03;;;2.34;99.03
4273;BME280;63887;53.656;9.810;2023-01-29T06:34:23;102516.03;;;2.29;99.20
4273;BME280;63887;53.656;9.810;2023-01-29T06:36:49;102507.41;;;2.31;98.82
4273;BME280;63887;53.656;9.810;2023-01-29T06:39:16;102503.09;;;2.30;98.67
4273;BME280;63887;53.656;9.810;2023-01-29T06:41:42;102503.09;;;2.29;98.65
4273;BME280;63887;53.656;9.810;2023-01-29T06:44:10;102511.72;;;2.28;98.92
4273;BME280;63887;53.656;9.810;2023-01-29T06:46:37;102521.22;;;2.30;98.75
4273;BME280;63887;53.656;9.810;2023-01-29T06:49:03;102508.28;;;2.30;99.13
4273;BME280;63887;53.656;9.810;2023-01-29T06:51:29;102503.09;;;2.29;99.09
4273;BME280;63887;53.656;9.810;2023-01-29T06:53:56;102494.47;;;2.30;98.96
4273;BME280;63887;53.656;9.810;2023-01-29T06:56:22;102495.34;;;2.33;98.67
4273;BME280;63887;53.656;9.810;2023-01-29T06:58:49;102495.34;;;2.33;98.68
4273;BME280;63887;53.656;9.810;2023-01-29T07:01:17;102480.75;;;2.43;98.15
4273;BME280;63887;53.656;9.810;2023-01-29T07:03:43;102482.47;;;2.39;98.10
4273;BME280;63887;53.656;9.810;2023-01-29T07:06:09;102486.72;;;2.36;98.29
4273;BME280;63887;53.656;9.810;2023-01-29T07:08:36;102492.75;;;2.33;98.40
4273;BME280;63887;53.656;9.810;2023-01-29T07:11:03;102495.25;;;2.23;97.76
4273;BME280;63887;53.656;9.810;2023-01-29T07:13:29;102510.75;;;2.18;97.61
4273;BME280;63887;53.656;9.810;2023-01-29T07:15:56;102510.75;;;2.15;97.51
4273;BME280;63887;53.656;9.810;2023-01-29T07:18:24;102515.03;;;2.13;97.97
4273;BME280;63887;53.656;9.810;2023-01-29T07:20:50;102507.31;;;2.19;98.05
4273;BME280;63887;53.656;9.810;2023-01-29T07:23:17;102503.84;;;2.16;97.21
4273;BME280;63887;53.656;9.810;2023-01-29T07:25:43;102506.44;;;2.14;97.16
4273;BME280;63887;53.656;9.810;2023-01-29T07:28:10;102500.41;;;2.17;97.14
4273;BME280;63887;53.656;9.810;2023-01-29T07:30:36;102494.31;;;2.10;97.37
4273;BME280;63887;53.656;9.810;2023-01-29T07:33:03;102497.72;;;2.07;97.76
4273;BME280;63887;53.656;9.810;2023-01-29T07:35:30;102497.72;;;2.07;97.59
4273;BME280;63887;53.656;9.810;2023-01-29T07:37:57;102491.75;;;2.12;97.61
4273;BME280;63887;53.656;9.810;2023-01-29T07:40:23;102487.47;;;2.17;97.42
4273;BME280;63887;53.656;9.810;2023-01-29T07:42:49;102481.44;;;2.18;97.60
4273;BME280;63887;53.656;9.810;2023-01-29T07:45:16;102473.69;;;2.22;97.21
4273;BME280;63887;53.656;9.810;2023-01-29T07:47:42;102468.47;;;2.18;97.43
4273;BME280;63887;53.656;9.810;2023-01-29T07:50:09;102465.03;;;2.19;97.51
4273;BME280;63887;53.656;9.810;2023-01-29T07:52:37;102471.06;;;2.19;97.46
4273;BME280;63887;53.656;9.810;2023-01-29T07:55:03;102484.09;;;2.27;97.16
4273;BME280;63887;53.656;9.810;2023-01-29T07:57:30;102473.72;;;2.25;96.69
4273;BME280;63887;53.656;9.810;2023-01-29T07:59:56;102472.88;;;2.29;96.76
4273;BME280;63887;53.656;9.810;2023-01-29T08:02:22;102471.16;;;2.31;96.90
4273;BME280;63887;53.656;9.810;2023-01-29T08:04:49;102466.84;;;2.29;96.60
4273;BME280;63887;53.656;9.810;2023-01-29T08:07:15;102463.41;;;2.33;96.71
4273;BME280;63887;53.656;9.810;2023-01-29T08:09:43;102465.13;;;2.34;96.52
4273;BME280;63887;53.656;9.810;2023-01-29T08:12:09;102466.00;;;2.36;96.73
4273;BME280;63887;53.656;9.810;2023-01-29T08:14:35;102457.38;;;2.32;96.95
4273;BME280;63887;53.656;9.810;2023-01-29T08:17:02;102460.00;;;2.38;96.95
4273;BME280;63887;53.656;9.810;2023-01-29T08:19:28;102460.03;;;2.42;97.03
4273;BME280;63887;53.656;9.810;2023-01-29T08:21:55;102454.84;;;2.46;96.87
4273;BME280;63887;53.656;9.810;2023-01-29T08:24:21;102465.22;;;2.46;96.73
4273;BME280;63887;53.656;9.810;2023-01-29T08:26:49;102467.81;;;2.48;96.50
4273;BME280;63887;53.656;9.810;2023-01-29T08:29:15;102458.31;;;2.48;96.84
4273;BME280;63887;53.656;9.810;2023-01-29T08:31:42;102453.16;;;2.48;97.15
4273;BME280;63887;53.656;9.810;2023-01-29T08:34:08;102453.16;;;2.48;97.26
4273;BME280;63887;53.656;9.810;2023-01-29T08:36:35;102443.66;;;2.52;97.02
4273;BME280;63887;53.656;9.810;2023-01-29T08:39:01;102448.03;;;2.57;97.11
4273;BME280;63887;53.656;9.810;2023-01-29T08:41:27;102446.31;;;2.61;97.01
4273;BME280;63887;53.656;9.810;2023-01-29T08:43:55;102442.00;;;2.66;96.64
4273;BME280;63887;53.656;9.810;2023-01-29T08:46:22;102448.09;;;2.71;96.66
4273;BME280;63887;53.656;9.810;2023-01-29T08:48:48;102448.09;;;2.73;97.00
4273;BME280;63887;53.656;9.810;2023-01-29T08:51:15;102447.25;;;2.72;96.96
4273;BME280;63887;53.656;9.810;2023-01-29T08:53:41;102442.06;;;2.72;96.71
4273;BME280;63887;53.656;9.810;2023-01-29T08:56:07;102447.25;;;2.75;96.97
4273;BME280;63887;53.656;9.810;2023-01-29T08:58:34;102444.63;;;2.69;97.22
4273;BME280;63887;53.656;9.810;2023-01-29T09:01:08;102441.19;;;2.75;97.12
4273;BME280;63887;53.656;9.810;2023-01-29T09:03:34;102447.25;;;2.75;97.31
4273;BME280;63887;53.656;9.810;2023-01-29T09:06:01;102450.72;;;2.79;97.08
4273;BME280;63887;53.656;9.810;2023-01-29T09:08:27;102450.69;;;2.77;97.44
4273;BME280;63887;53.656;9.810;2023-01-29T09:10:53;102450.72;;;2.79;97.46
4273;BME280;63887;53.656;9.810;2023-01-29T09:13:20;102455.03;;;2.81;97.59
4273;BME280;63887;53.656;9.810;2023-01-29T09:15:46;102450.75;;;2.86;97.63
4273;BME280;63887;53.656;9.810;2023-01-29T09:18:14;102446.44;;;2.94;97.53
4273;BME280;63887;53.656;9.810;2023-01-29T09:20:40;102452.50;;;2.93;97.78
4273;BME280;63887;53.656;9.810;2023-01-29T09:23:07;102448.22;;;3.05;97.59
4273;BME280;63887;53.656;9.810;2023-01-29T09:25:34;102438.72;;;3.01;98.15
4273;BME280;63887;53.656;9.810;2023-01-29T09:28:00;102448.22;;;2.98;98.29
4273;BME280;63887;53.656;9.810;2023-01-29T09:30:27;102444.78;;;3.04;98.53
4273;BME280;63887;53.656;9.810;2023-01-29T09:32:53;102443.91;;;3.04;98.33
4273;BME280;63887;53.656;9.810;2023-01-29T09:35:21;102437.00;;;3.01;98.71
4273;BME280;63887;53.656;9.810;2023-01-29T09:37:47;102438.72;;;3.01;98.97
4273;BME280;63887;53.656;9.810;2023-01-29T09:40:16;102437.84;;;3.00;99.17
4273;BME280;63887;53.656;9.810;2023-01-29T09:42:47;102436.13;;;3.04;99.62
4273;BME280;63887;53.656;9.810;2023-01-29T09:45:18;102422.34;;;3.17;99.46
4273;BME280;63887;53.656;9.810;2023-01-29T09:47:46;102417.16;;;3.18;99.07
4273;BME280;63887;53.656;9.810;2023-01-29T09:50:14;102405.94;;;3.13;99.18
4273;BME280;63887;53.656;9.810;2023-01-29T09:52:44;102408.47;;;3.12;99.15
4273;BME280;63887;53.656;9.810;2023-01-29T09:55:14;102394.69;;;3.17;99.39
4273;BME280;63887;53.656;9.810;2023-01-29T09:57:44;102385.19;;;3.18;98.81
4273;BME280;63887;53.656;9.810;2023-01-29T10:00:13;102388.63;;;3.14;99.31
4273;BME280;63887;53.656;9.810;2023-01-29T10:02:44;102388.59;;;3.12;99.18
4273;BME280;63887;53.656;9.810;2023-01-29T10:05:17;102390.38;;;3.15;99.38
4273;BME280;63887;53.656;9.810;2023-01-29T10:08:02;102380.00;;;3.13;99.10
4273;BME280;63887;53.656;9.810;2023-01-29T10:10:36;102385.16;;;3.07;99.20
4273;BME280;63887;53.656;9.810;2023-01-29T10:13:10;102381.69;;;3.10;99.32
4273;BME280;63887;53.656;9.810;2023-01-29T10:15:53;102366.16;;;3.16;99.33
4273;BME280;63887;53.656;9.810;2023-01-29T10:18:32;102369.59;;;3.06;99.36
4273;BME280;63887;53.656;9.810;2023-01-29T10:21:05;102366.16;;;3.17;99.46
4273;BME280;63887;53.656;9.810;2023-01-29T10:23:35;102367.03;;;3.18;99.10
4273;BME280;63887;53.656;9.810;2023-01-29T10:26:02;102357.53;;;3.17;99.33
4273;BME280;63887;53.656;9.810;2023-01-29T10:28:30;102356.66;;;3.21;99.03
4273;BME280;63887;53.656;9.810;2023-01-29T10:30:58;102348.88;;;3.22;98.91
4273;BME280;63887;53.656;9.810;2023-01-29T10:33:26;102361.84;;;3.16;98.88
4273;BME280;63887;53.656;9.810;2023-01-29T10:35:55;102360.13;;;3.21;98.82
4273;BME280;63887;53.656;9.810;2023-01-29T10:38:27;102360.13;;;3.18;98.76
4273;BME280;63887;53.656;9.810;2023-01-29T10:40:59;102352.34;;;3.29;98.34
4273;BME280;63887;53.656;9.810;2023-01-29T10:43:28;102334.19;;;3.24;98.59
4273;BME280;63887;53.656;9.810;2023-01-29T10:46:00;102341.09;;;3.22;98.85
4273;BME280;63887;53.656;9.810;2023-01-29T10:48:37;102327.28;;;3.34;99.10
4273;BME280;63887;53.656;9.810;2023-01-29T10:51:08;102327.28;;;3.37;98.41
4273;BME280;63887;53.656;9.810;2023-01-29T10:53:44;102318.63;;;3.50;97.35
4273;BME280;63887;53.656;9.810;2023-01-29T10:56:21;102312.59;;;3.36;98.40
4273;BME280;63887;53.656;9.810;2023-01-29T10:58:53;102309.97;;;3.53;97.61
4273;BME280;63887;53.656;9.810;2023-01-29T11:01:20;102309.97;;;3.50;97.29
4273;BME280;63887;53.656;9.810;2023-01-29T11:03:48;102303.94;;;3.48;97.78
4273;BME280;63887;53.656;9.810;2023-01-29T11:06:20;102297.03;;;3.48;97.29
4273;BME280;63887;53.656;9.810;2023-01-29T11:08:51;102292.72;;;3.46;97.61
4273;BME280;63887;53.656;9.810;2023-01-29T11:11:20;102288.38;;;3.48;97.70
4273;BME280;63887;53.656;9.810;2023-01-29T11:13:48;102285.75;;;3.54;97.35
4273;BME280;63887;53.656;9.810;2023-01-29T11:16:17;102293.56;;;3.58;97.14
4273;BME280;63887;53.656;9.810;2023-01-29T11:18:47;102289.22;;;3.54;96.46
4273;BME280;63887;53.656;9.810;2023-01-29T11:21:14;102283.16;;;3.65;96.23
4273;BME280;63887;53.656;9.810;2023-01-29T11:23:40;102281.41;;;3.70;96.20
4273;BME280;63887;53.656;9.810;2023-01-29T11:26:07;102280.53;;;3.77;95.57
4273;BME280;63887;53.656;9.810;2023-01-29T11:28:38;102280.53;;;3.80;96.21
4273;BME280;63887;53.656;9.810;2023-01-29T11:31:18;102278.84;;;3.64;95.84
4273;BME280;63887;53.656;9.810;2023-01-29T11:33:46;102276.25;;;3.62;96.12
4273;BME280;63887;53.656;9.810;2023-01-29T11:36:19;102269.31;;;3.76;95.92
4273;BME280;63887;53.656;9.810;2023-01-29T11:38:45;102258.00;;;3.85;95.42
4273;BME280;63887;53.656;9.810;2023-01-29T11:41:13;102258.03;;;3.88;94.87
4273;BME280;63887;53.656;9.810;2023-01-29T11:43:43;102256.28;;;3.82;94.87
4273;BME280;63887;53.656;9.810;2023-01-29T11:46:10;102257.16;;;3.89;95.06
4273;BME280;63887;53.656;9.810;2023-01-29T11:48:39;102250.19;;;3.96;94.34
4273;BME280;63887;53.656;9.810;2023-01-29T11:51:06;102243.28;;;3.98;94.08
4273;BME280;63887;53.656;9.810;2023-01-29T11:53:34;102245.03;;;3.94;94.65
4273;BME280;63887;53.656;9.810;2023-01-29T11:56:02;102236.38;;;3.94;94.85
4273;BME280;63887;53.656;9.810;2023-01-29T11:58:31;102244.19;;;3.91;94.77
4273;BME280;63887;53.656;9.810;2023-01-29T12:00:59;102230.31;;;3.85;94.49
4273;BME280;63887;53.656;9.810;2023-01-29T12:03:28;102226.00;;;3.94;94.39
4273;BME280;63887;53.656;9.810;2023-01-29T12:05:56;102224.25;;;3.86;94.52
4273;BME280;63887;53.656;9.810;2023-01-29T12:08:24;102217.34;;;3.92;95.34
4273;BME280;63887;53.656;9.810;2023-01-29T12:10:53;102218.19;;;3.94;95.18
4273;BME280;63887;53.656;9.810;2023-01-29T12:13:32;102213.84;;;4.02;94.58
4273;BME280;63887;53.656;9.810;2023-01-29T12:16:07;102206.94;;;3.93;94.60
4273;BME280;63887;53.656;9.810;2023-01-29T12:18:38;102201.78;;;3.84;95.78
4273;BME280;63887;53.656;9.810;2023-01-29T12:21:09;102193.13;;;3.89;96.21
4273;BME280;63887;53.656;9.810;2023-01-29T12:23:39;102195.72;;;3.93;95.11
4273;BME280;63887;53.656;9.810;2023-01-29T12:26:08;102183.59;;;3.85;95.66
4273;BME280;63887;53.656;9.810;2023-01-29T12:28:39;102190.56;;;3.88;95.79
4273;BME280;63887;53.656;9.810;2023-01-29T12:31:13;102189.66;;;3.84;95.51
4273;BME280;63887;53.656;9.810;2023-01-29T12:33:45;102175.84;;;3.81;95.81
4273;BME280;63887;53.656;9.810;2023-01-29T12:36:16;102166.34;;;3.81;95.12
4273;BME280;63887;53.656;9.810;2023-01-29T12:38:44;102168.88;;;3.92;95.87
4273;BME280;63887;53.656;9.810;2023-01-29T12:41:14;102166.28;;;3.94;95.67
4273;BME280;63887;53.656;9.810;2023-01-29T12:43:45;102161.09;;;3.95;94.91
4273;BME280;63887;53.656;9.810;2023-01-29T12:46:17;102143.69;;;4.11;95.28
4273;BME280;63887;53.656;9.810;2023-01-29T12:48:46;102141.03;;;4.22;94.35
4273;BME280;63887;53.656;9.810;2023-01-29T12:51:15;102134.09;;;4.22;93.92
4273;BME280;63887;53.656;9.810;2023-01-29T12:53:43;102128.91;;;4.24;92.88
4273;BME280;63887;53.656;9.810;2023-01-29T12:56:12;102135.84;;;4.22;93.81
4273;BME280;63887;53.656;9.810;2023-01-29T12:58:40;102125.47;;;4.20;92.44
4273;BME280;63887;53.656;9.810;2023-01-29T13:01:10;102128.97;;;4.10;93.29
4273;BME280;63887;53.656;9.810;2023-01-29T13:03:41;102123.75;;;4.14;93.51
4273;BME280;63887;53.656;9.810;2023-01-29T13:06:11;102120.28;;;4.18;92.84
4273;BME280;63887;53.656;9.810;2023-01-29T13:08:40;102110.72;;;4.24;92.53
4273;BME280;63887;53.656;9.810;2023-01-29T13:11:09;102102.06;;;4.23;92.75
4273;BME280;63887;53.656;9.810;2023-01-29T13:13:40;102099.63;;;3.96;93.52
4273;BME280;63887;53.656;9.810;2023-01-29T13:16:10;102085.78;;;3.97;93.56
4273;BME280;63887;53.656;9.810;2023-01-29T13:18:42;102093.63;;;3.86;93.46